PWSweather.com
Personal Weather Stations
Station Observations
KM4VKY
Mossy Head, Crestview, FL 32539

Mossy HeadCrestview, FL 32539

Lat: 30.70978546, Lon: -86.40254974

Elevation: 215

Station Type: Acurite

Latest ConditionsUpdated 11:05:00 PM CDT Tuesday, Aug 20, 2019
Currently Today's Max Today's Min Today's Average
Temperature 77.9°F25.5°C 89.8°F32.1°C 74.4°F23.6°C 79.9°F26.6°C
Dew Point 77.6°F25.3°C 81.6°F27.6°C 74.1°F23.4°C 77.4°F25.2°C
Winds Calm Calm 8.4 mph -13.5 kmh - - 1.4 mph 2.3 kmh
Wind Gusts -- 12.5 mph20.1 kmh - -
Humidity 99% 99% 68% 93%
Pressure 30.05 in1017.6 mb 30.05 in1017.6 mb 29.97 in1014.9 mb -
Precipitation - 0.11 in2.8 mm - -
Hour Temp Dew Point Humidity Winds Wind Gusts Pressure Precip Precip Rate Daily Precip Total
11:05 PM 77.9°F25.5°C 77.6°F25.3°C 99% Calm Calm -- 30.05 in1017.6 mb 0.00 in0.0 mm 0.00 in0.0 mm 0.11 in2.8 mm
11:00 PM 77.9°F25.5°C 77.6°F25.3°C 99% 1.0 mph SSE1.6 kmh SSE 1.7 mph2.7 kmh 30.05 in1017.6 mb 0.00 in0.0 mm 0.00 in0.0 mm 0.11 in2.8 mm
10:55 PM 78.0°F25.6°C 77.7°F25.4°C 99% 1.2 mph SSE1.9 kmh SSE 1.7 mph2.7 kmh 30.04 in1017.3 mb 0.00 in0.0 mm 0.00 in0.0 mm 0.11 in2.8 mm
10:50 PM 78.1°F25.6°C 77.8°F25.4°C 99% 0.7 mph SSE1.1 kmh SSE 1.7 mph2.7 kmh 30.04 in1017.3 mb 0.00 in0.0 mm 0.00 in0.0 mm 0.11 in2.8 mm
10:45 PM 78.3°F25.7°C 78.0°F25.6°C 99% 0.8 mph SSE1.3 kmh SSE 1.7 mph2.7 kmh 30.04 in1017.3 mb 0.00 in0.0 mm 0.00 in0.0 mm 0.11 in2.8 mm
10:40 PM 78.4°F25.8°C 78.1°F25.6°C 99% Calm Calm -- 30.04 in1017.3 mb 0.00 in0.0 mm 0.00 in0.0 mm 0.11 in2.8 mm
10:35 PM 78.4°F25.8°C 78.1°F25.6°C 99% Calm Calm -- 30.04 in1017.3 mb 0.00 in0.0 mm 0.00 in0.0 mm 0.11 in2.8 mm
10:30 PM 78.5°F25.8°C 78.2°F25.7°C 99% Calm Calm -- 30.04 in1017.3 mb 0.00 in0.0 mm 0.00 in0.0 mm 0.11 in2.8 mm
10:25 PM 78.4°F25.8°C 77.9°F25.5°C 98% Calm Calm -- 30.04 in1017.3 mb 0.00 in0.0 mm 0.00 in0.0 mm 0.11 in2.8 mm
10:20 PM 78.4°F25.8°C 77.8°F25.4°C 98% 0.7 mph SSE1.1 kmh SSE 1.7 mph2.7 kmh 30.04 in1017.3 mb 0.00 in0.0 mm 0.00 in0.0 mm 0.11 in2.8 mm
10:15 PM 78.4°F25.8°C 77.8°F25.4°C 98% 1.4 mph SSE2.3 kmh SSE 1.7 mph2.7 kmh 30.04 in1017.3 mb 0.00 in0.0 mm 0.00 in0.0 mm 0.11 in2.8 mm
10:10 PM 78.4°F25.8°C 77.8°F25.4°C 98% 1.6 mph SSE2.6 kmh SSE 1.7 mph2.7 kmh 30.04 in1017.3 mb 0.00 in0.0 mm 0.00 in0.0 mm 0.11 in2.8 mm
10:05 PM 78.7°F25.9°C 78.1°F25.6°C 98% 1.7 mph SSE2.7 kmh SSE 1.7 mph2.7 kmh 30.04 in1017.3 mb 0.00 in0.0 mm 0.00 in0.0 mm 0.11 in2.8 mm
10:00 PM 78.8°F26.0°C 78.1°F25.6°C 98% 1.4 mph SSE2.3 kmh SSE 1.7 mph2.7 kmh 30.03 in1016.9 mb 0.00 in0.0 mm 0.00 in0.0 mm 0.11 in2.8 mm
09:55 PM 79.2°F26.2°C 78.2°F25.7°C 97% 0.9 mph SSE1.4 kmh SSE 2.2 mph3.5 kmh 30.03 in1016.9 mb 0.00 in0.0 mm 0.00 in0.0 mm 0.11 in2.8 mm
09:50 PM 79.2°F26.2°C 78.3°F25.7°C 97% 0.8 mph SSE1.3 kmh SSE 1.1 mph1.8 kmh 30.03 in1016.9 mb 0.00 in0.0 mm 0.00 in0.0 mm 0.11 in2.8 mm
09:45 PM 79.3°F26.3°C 78.2°F25.7°C 97% 1.6 mph SSE2.6 kmh SSE 1.7 mph2.7 kmh 30.03 in1016.9 mb 0.00 in0.0 mm 0.00 in0.0 mm 0.11 in2.8 mm
09:40 PM 79.5°F26.4°C 78.3°F25.7°C 96% 1.7 mph SSE2.7 kmh SSE 2.2 mph3.5 kmh 30.02 in1016.6 mb 0.00 in0.0 mm 0.00 in0.0 mm 0.11 in2.8 mm
09:35 PM 79.7°F26.5°C 78.1°F25.6°C 95% 0.8 mph SSE1.3 kmh SSE 2.2 mph3.5 kmh 30.02 in1016.6 mb 0.00 in0.0 mm 0.00 in0.0 mm 0.11 in2.8 mm
09:30 PM 79.8°F26.6°C 78.2°F25.7°C 95% 0.6 mph SSE1.0 kmh SSE 1.7 mph2.7 kmh 30.02 in1016.6 mb 0.00 in0.0 mm 0.00 in0.0 mm 0.11 in2.8 mm
09:25 PM 79.9°F26.6°C 78.4°F25.8°C 95% 0.9 mph SSE1.4 kmh SSE 1.7 mph2.7 kmh 30.02 in1016.6 mb 0.00 in0.0 mm 0.00 in0.0 mm 0.11 in2.8 mm
09:20 PM 79.9°F26.6°C 78.5°F25.8°C 95% 1.4 mph S2.3 kmh S 2.7 mph4.3 kmh 30.02 in1016.6 mb 0.00 in0.0 mm 0.00 in0.0 mm 0.11 in2.8 mm
09:15 PM 79.8°F26.6°C 78.3°F25.7°C 95% 1.5 mph S2.4 kmh S 2.2 mph3.5 kmh 30.02 in1016.6 mb 0.00 in0.0 mm 0.00 in0.0 mm 0.11 in2.8 mm
09:10 PM 79.7°F26.5°C 78.4°F25.8°C 96% 1.5 mph S2.4 kmh S 2.7 mph4.3 kmh 30.02 in1016.6 mb 0.00 in0.0 mm 0.00 in0.0 mm 0.11 in2.8 mm
09:05 PM 79.7°F26.5°C 78.6°F25.9°C 96% 0.7 mph S1.1 kmh S 2.2 mph3.5 kmh 30.01 in1016.3 mb 0.00 in0.0 mm 0.00 in0.0 mm 0.11 in2.8 mm
09:00 PM 79.7°F26.5°C 78.8°F26.0°C 97% 0.7 mph S1.1 kmh S 2.7 mph4.3 kmh 30.01 in1016.3 mb 0.00 in0.0 mm 0.00 in0.0 mm 0.11 in2.8 mm
08:55 PM 79.5°F26.4°C 78.6°F25.9°C 97% 0.3 mph S0.5 kmh S 2.2 mph3.5 kmh 30.00 in1015.9 mb 0.00 in0.0 mm 0.00 in0.0 mm 0.11 in2.8 mm
08:50 PM 79.5°F26.4°C 78.6°F25.9°C 97% 2.0 mph S3.2 kmh S 2.7 mph4.3 kmh 30.00 in1015.9 mb 0.00 in0.0 mm 0.00 in0.0 mm 0.11 in2.8 mm
08:45 PM 79.5°F26.4°C 78.6°F25.9°C 97% 1.4 mph S2.3 kmh S 2.2 mph3.5 kmh 30.00 in1015.9 mb 0.00 in0.0 mm 0.00 in0.0 mm 0.11 in2.8 mm
08:40 PM 79.6°F26.4°C 78.4°F25.8°C 96% Calm Calm -- 30.00 in1015.9 mb 0.00 in0.0 mm 0.00 in0.0 mm 0.11 in2.8 mm
08:35 PM 79.8°F26.6°C 78.2°F25.7°C 95% Calm Calm -- 30.00 in1015.9 mb 0.00 in0.0 mm 0.00 in0.0 mm 0.11 in2.8 mm
08:30 PM 79.9°F26.6°C 78.4°F25.8°C 95% Calm Calm -- 29.99 in1015.6 mb 0.00 in0.0 mm 0.00 in0.0 mm 0.11 in2.8 mm
08:25 PM 80.1°F26.7°C 78.5°F25.8°C 95% Calm Calm -- 29.99 in1015.6 mb 0.00 in0.0 mm 0.00 in0.0 mm 0.11 in2.8 mm
08:20 PM 80.2°F26.8°C 78.6°F25.9°C 95% Calm Calm -- 29.99 in1015.6 mb 0.00 in0.0 mm 0.00 in0.0 mm 0.11 in2.8 mm
08:15 PM 80.4°F26.9°C 78.6°F25.9°C 94% Calm Calm -- 29.99 in1015.6 mb 0.00 in0.0 mm 0.00 in0.0 mm 0.11 in2.8 mm
08:10 PM 80.6°F27.0°C 78.7°F25.9°C 94% Calm Calm -- 29.99 in1015.6 mb 0.00 in0.0 mm 0.00 in0.0 mm 0.11 in2.8 mm
08:05 PM 80.7°F27.1°C 78.8°F26.0°C 94% 0.4 mph S0.6 kmh S 1.7 mph2.7 kmh 29.99 in1015.6 mb 0.00 in0.0 mm 0.00 in0.0 mm 0.11 in2.8 mm
08:00 PM 81.0°F27.2°C 79.0°F26.1°C 94% 0.5 mph S0.8 kmh S 2.2 mph3.5 kmh 29.99 in1015.6 mb 0.00 in0.0 mm 0.00 in0.0 mm 0.11 in2.8 mm
07:55 PM 81.3°F27.4°C 79.0°F26.1°C 93% Calm Calm -- 29.99 in1015.6 mb 0.00 in0.0 mm 0.00 in0.0 mm 0.11 in2.8 mm
07:50 PM 81.4°F27.4°C 79.0°F26.1°C 92% Calm Calm -- 29.99 in1015.6 mb 0.00 in0.0 mm 0.00 in0.0 mm 0.11 in2.8 mm
07:45 PM 81.7°F27.6°C 79.2°F26.2°C 92% Calm Calm -- 29.99 in1015.6 mb 0.00 in0.0 mm 0.00 in0.0 mm 0.11 in2.8 mm
07:40 PM 82.1°F27.8°C 79.3°F26.3°C 91% Calm Calm -- 29.99 in1015.6 mb 0.00 in0.0 mm 0.00 in0.0 mm 0.11 in2.8 mm
07:35 PM 82.4°F28.0°C 78.9°F26.1°C 89% Calm Calm -- 29.99 in1015.6 mb 0.00 in0.0 mm 0.00 in0.0 mm 0.11 in2.8 mm
07:30 PM 82.4°F28.0°C 78.9°F26.1°C 89% 0.1 mph SSE0.2 kmh SSE 1.1 mph1.8 kmh 29.99 in1015.6 mb 0.00 in0.0 mm 0.00 in0.0 mm 0.11 in2.8 mm
07:25 PM 82.6°F28.1°C 79.2°F26.2°C 90% 1.2 mph SSE1.9 kmh SSE 1.7 mph2.7 kmh 29.99 in1015.6 mb 0.00 in0.0 mm 0.00 in0.0 mm 0.11 in2.8 mm
07:20 PM 82.9°F28.3°C 78.9°F26.1°C 88% 1.5 mph S2.4 kmh S 2.2 mph3.5 kmh 29.99 in1015.6 mb 0.00 in0.0 mm 0.00 in0.0 mm 0.11 in2.8 mm
07:15 PM 83.3°F28.5°C 79.3°F26.3°C 88% 0.2 mph SSE0.3 kmh SSE 1.1 mph1.8 kmh 29.99 in1015.6 mb 0.00 in0.0 mm 0.00 in0.0 mm 0.11 in2.8 mm
07:10 PM 83.4°F28.6°C 79.4°F26.3°C 88% 2.3 mph S3.7 kmh S 3.2 mph5.1 kmh 29.99 in1015.6 mb 0.00 in0.0 mm 0.00 in0.0 mm 0.11 in2.8 mm
07:05 PM 83.9°F28.8°C 78.9°F26.1°C 85% 1.7 mph S2.7 kmh S 2.2 mph3.5 kmh 29.99 in1015.6 mb 0.00 in0.0 mm 0.00 in0.0 mm 0.11 in2.8 mm
07:00 PM 84.8°F29.3°C 79.1°F26.2°C 83% 0.6 mph SSE1.0 kmh SSE 2.2 mph3.5 kmh 29.99 in1015.6 mb 0.00 in0.0 mm 0.00 in0.0 mm 0.11 in2.8 mm
06:55 PM 85.0°F29.4°C 79.4°F26.3°C 83% 1.4 mph SSE2.3 kmh SSE 2.2 mph3.5 kmh 29.98 in1015.2 mb 0.00 in0.0 mm 0.00 in0.0 mm 0.11 in2.8 mm
06:50 PM 84.9°F29.4°C 79.1°F26.2°C 83% 1.8 mph S2.9 kmh S 2.7 mph4.3 kmh 29.98 in1015.2 mb 0.00 in0.0 mm 0.00 in0.0 mm 0.11 in2.8 mm
06:45 PM 85.0°F29.4°C 78.8°F26.0°C 82% 2.2 mph S3.5 kmh S 3.7 mph6.0 kmh 29.98 in1015.2 mb 0.00 in0.0 mm 0.00 in0.0 mm 0.11 in2.8 mm
06:40 PM 85.5°F29.7°C 79.1°F26.2°C 81% 2.6 mph S4.2 kmh S 3.7 mph6.0 kmh 29.98 in1015.2 mb 0.00 in0.0 mm 0.00 in0.0 mm 0.11 in2.8 mm
06:35 PM 85.8°F29.9°C 78.8°F26.0°C 80% 3.5 mph S5.6 kmh S 5.3 mph8.5 kmh 29.98 in1015.2 mb 0.00 in0.0 mm 0.00 in0.0 mm 0.11 in2.8 mm
06:30 PM 86.5°F30.3°C 79.2°F26.2°C 79% 3.8 mph S6.1 kmh S 5.3 mph8.5 kmh 29.98 in1015.2 mb 0.00 in0.0 mm 0.00 in0.0 mm 0.11 in2.8 mm
06:25 PM 86.4°F30.2°C 78.8°F26.0°C 78% 4.8 mph S7.7 kmh S 6.3 mph10.1 kmh 29.98 in1015.2 mb 0.00 in0.0 mm 0.00 in0.0 mm 0.11 in2.8 mm
06:20 PM 86.8°F30.4°C 78.9°F26.1°C 77% 5.3 mph SSW8.5 kmh SSW 6.3 mph10.1 kmh 29.99 in1015.6 mb 0.00 in0.0 mm 0.00 in0.0 mm 0.11 in2.8 mm
06:15 PM 86.1°F30.1°C 78.9°F26.1°C 79% 4.6 mph S7.4 kmh S 6.3 mph10.1 kmh 29.99 in1015.6 mb 0.00 in0.0 mm 0.00 in0.0 mm 0.11 in2.8 mm
06:10 PM 84.8°F29.3°C 78.9°F26.1°C 83% 3.2 mph S5.1 kmh S 4.2 mph6.8 kmh 29.99 in1015.6 mb 0.00 in0.0 mm 0.00 in0.0 mm 0.11 in2.8 mm
06:05 PM 84.9°F29.4°C 78.2°F25.7°C 81% 4.8 mph SSW7.7 kmh SSW 5.3 mph8.5 kmh 29.99 in1015.6 mb 0.00 in0.0 mm 0.00 in0.0 mm 0.11 in2.8 mm
06:00 PM 85.1°F29.5°C 78.4°F25.8°C 80% 4.5 mph SW7.2 kmh SW 6.3 mph10.1 kmh 29.99 in1015.6 mb 0.00 in0.0 mm 0.00 in0.0 mm 0.11 in2.8 mm
05:55 PM 84.9°F29.4°C 78.4°F25.8°C 81% 3.7 mph S6.0 kmh S 5.8 mph9.3 kmh 29.99 in1015.6 mb 0.00 in0.0 mm 0.00 in0.0 mm 0.11 in2.8 mm
05:50 PM 84.9°F29.4°C 78.3°F25.7°C 81% 4.9 mph SSW7.9 kmh SSW 6.8 mph10.9 kmh 29.99 in1015.6 mb 0.00 in0.0 mm 0.00 in0.0 mm 0.11 in2.8 mm
05:45 PM 85.1°F29.5°C 78.6°F25.9°C 81% 3.9 mph S6.3 kmh S 5.8 mph9.3 kmh 29.99 in1015.6 mb 0.00 in0.0 mm 0.00 in0.0 mm 0.11 in2.8 mm
05:40 PM 85.4°F29.7°C 78.6°F25.9°C 80% 3.9 mph S6.3 kmh S 5.8 mph9.3 kmh 29.99 in1015.6 mb 0.00 in0.0 mm 0.00 in0.0 mm 0.11 in2.8 mm
05:35 PM 85.5°F29.7°C 78.5°F25.8°C 80% 3.9 mph SSW6.3 kmh SSW 6.3 mph10.1 kmh 29.99 in1015.6 mb 0.00 in0.0 mm 0.00 in0.0 mm 0.11 in2.8 mm
05:30 PM 85.5°F29.7°C 78.3°F25.7°C 79% 4.2 mph S6.8 kmh S 5.3 mph8.5 kmh 30.00 in1015.9 mb 0.00 in0.0 mm 0.00 in0.0 mm 0.11 in2.8 mm
05:25 PM 85.5°F29.7°C 79.0°F26.1°C 81% 3.5 mph SSW5.6 kmh SSW 4.7 mph7.6 kmh 30.00 in1015.9 mb 0.00 in0.0 mm 0.00 in0.0 mm 0.11 in2.8 mm
05:20 PM 85.5°F29.7°C 78.5°F25.8°C 80% 3.9 mph S6.3 kmh S 5.3 mph8.5 kmh 29.99 in1015.6 mb 0.00 in0.0 mm 0.00 in0.0 mm 0.11 in2.8 mm
05:15 PM 85.7°F29.8°C 78.6°F25.9°C 79% 3.5 mph SSW5.6 kmh SSW 4.7 mph7.6 kmh 29.99 in1015.6 mb 0.00 in0.0 mm 0.00 in0.0 mm 0.11 in2.8 mm
05:10 PM 85.9°F29.9°C 78.4°F25.8°C 78% 4.2 mph S6.8 kmh S 4.7 mph7.6 kmh 29.99 in1015.6 mb 0.00 in0.0 mm 0.00 in0.0 mm 0.11 in2.8 mm
05:05 PM 86.1°F30.1°C 78.4°F25.8°C 78% 3.5 mph S5.6 kmh S 4.7 mph7.6 kmh 30.00 in1015.9 mb 0.00 in0.0 mm 0.00 in0.0 mm 0.11 in2.8 mm
05:00 PM 85.7°F29.8°C 78.1°F25.6°C 78% 3.1 mph S5.0 kmh S 4.7 mph7.6 kmh 30.00 in1015.9 mb 0.00 in0.0 mm 0.00 in0.0 mm 0.11 in2.8 mm
04:55 PM 85.8°F29.9°C 77.9°F25.5°C 77% 3.0 mph S4.8 kmh S 4.7 mph7.6 kmh 30.00 in1015.9 mb 0.00 in0.0 mm 0.00 in0.0 mm 0.11 in2.8 mm
04:50 PM 86.3°F30.2°C 77.0°F25.0°C 74% 5.5 mph SSW8.9 kmh SSW 7.3 mph11.7 kmh 30.00 in1015.9 mb 0.00 in0.0 mm 0.00 in0.0 mm 0.11 in2.8 mm
04:45 PM 86.4°F30.2°C 77.0°F25.0°C 74% 4.8 mph SSW7.7 kmh SSW 7.8 mph12.6 kmh 30.00 in1015.9 mb 0.00 in0.0 mm 0.00 in0.0 mm 0.11 in2.8 mm
04:40 PM 86.3°F30.2°C 77.0°F25.0°C 74% 3.5 mph SSW5.6 kmh SSW 5.8 mph9.3 kmh 30.00 in1015.9 mb 0.00 in0.0 mm 0.00 in0.0 mm 0.11 in2.8 mm
04:35 PM 86.4°F30.2°C 77.1°F25.1°C 74% 3.1 mph SSW5.0 kmh SSW 4.7 mph7.6 kmh 30.00 in1015.9 mb 0.00 in0.0 mm 0.00 in0.0 mm 0.11 in2.8 mm
04:30 PM 86.2°F30.1°C 79.7°F26.5°C 81% 3.1 mph SSW5.0 kmh SSW 4.7 mph7.6 kmh 30.00 in1015.9 mb 0.00 in0.0 mm 0.00 in0.0 mm 0.11 in2.8 mm
04:25 PM 85.8°F29.9°C 81.1°F27.3°C 86% 2.7 mph SW4.3 kmh SW 4.2 mph6.8 kmh 30.00 in1015.9 mb 0.00 in0.0 mm 0.00 in0.0 mm 0.11 in2.8 mm
04:20 PM 86.4°F30.2°C 81.1°F27.3°C 84% 6.5 mph ENE10.5 kmh ENE 6.8 mph10.9 kmh 30.00 in1015.9 mb 0.00 in0.0 mm 0.00 in0.0 mm 0.11 in2.8 mm
04:15 PM 85.3°F29.6°C 81.1°F27.3°C 87% 1.8 mph ENE2.9 kmh ENE 2.7 mph4.3 kmh 30.00 in1015.9 mb 0.00 in0.0 mm 0.00 in0.0 mm 0.11 in2.8 mm
04:10 PM 85.6°F29.8°C 81.5°F27.5°C 88% 3.0 mph ENE4.8 kmh ENE 4.2 mph6.8 kmh 30.00 in1015.9 mb 0.00 in0.0 mm 0.00 in0.0 mm 0.11 in2.8 mm
04:05 PM 85.8°F29.9°C 81.6°F27.6°C 88% 3.4 mph ENE5.5 kmh ENE 5.3 mph8.5 kmh 30.00 in1015.9 mb 0.00 in0.0 mm 0.00 in0.0 mm 0.11 in2.8 mm
04:00 PM 85.8°F29.9°C 80.8°F27.1°C 85% 3.0 mph ENE4.8 kmh ENE 4.7 mph7.6 kmh 30.00 in1015.9 mb 0.00 in0.0 mm 0.00 in0.0 mm 0.11 in2.8 mm
03:55 PM 85.8°F29.9°C 80.0°F26.7°C 83% 2.3 mph ENE3.7 kmh ENE 3.2 mph5.1 kmh 30.00 in1015.9 mb 0.00 in0.0 mm 0.00 in0.0 mm 0.11 in2.8 mm
03:50 PM 85.1°F29.5°C 79.9°F26.6°C 85% 2.3 mph ENE3.7 kmh ENE 3.2 mph5.1 kmh 30.00 in1015.9 mb 0.00 in0.0 mm 0.00 in0.0 mm 0.11 in2.8 mm
03:45 PM 84.6°F29.2°C 80.6°F27.0°C 88% 0.5 mph ENE0.8 kmh ENE 3.2 mph5.1 kmh 30.00 in1015.9 mb 0.00 in0.0 mm 0.00 in0.0 mm 0.11 in2.8 mm
03:40 PM 84.4°F29.1°C 80.3°F26.8°C 88% 2.8 mph ENE4.5 kmh ENE 4.7 mph7.6 kmh 30.00 in1015.9 mb 0.00 in0.0 mm 0.00 in0.0 mm 0.11 in2.8 mm
03:35 PM 84.6°F29.2°C 80.7°F27.1°C 88% 4.0 mph ENE6.4 kmh ENE 5.3 mph8.5 kmh 30.00 in1015.9 mb 0.00 in0.0 mm 0.00 in0.0 mm 0.11 in2.8 mm
03:30 PM 84.6°F29.2°C 80.6°F27.0°C 88% 3.6 mph NE5.8 kmh NE 5.3 mph8.5 kmh 30.00 in1015.9 mb 0.00 in0.0 mm 0.00 in0.0 mm 0.11 in2.8 mm
03:25 PM 84.4°F29.1°C 79.8°F26.6°C 86% 1.1 mph NE1.8 kmh NE 2.2 mph3.5 kmh 30.00 in1015.9 mb 0.00 in0.0 mm 0.00 in0.0 mm 0.11 in2.8 mm
03:20 PM 83.5°F28.6°C 79.7°F26.5°C 88% 0.9 mph NE1.4 kmh NE 2.2 mph3.5 kmh 30.01 in1016.3 mb 0.00 in0.0 mm 0.00 in0.0 mm 0.11 in2.8 mm
03:15 PM 83.4°F28.6°C 80.3°F26.8°C 90% 1.1 mph NE1.8 kmh NE 2.7 mph4.3 kmh 30.01 in1016.3 mb 0.00 in0.0 mm 0.00 in0.0 mm 0.11 in2.8 mm
03:10 PM 82.9°F28.3°C 80.1°F26.7°C 91% 1.3 mph NE2.1 kmh NE 2.2 mph3.5 kmh 30.01 in1016.3 mb 0.00 in0.0 mm 0.00 in0.0 mm 0.11 in2.8 mm
03:05 PM 82.6°F28.1°C 79.8°F26.6°C 92% 0.5 mph NE0.8 kmh NE 1.7 mph2.7 kmh 30.01 in1016.3 mb 0.00 in0.0 mm 0.00 in0.0 mm 0.11 in2.8 mm
03:00 PM 82.8°F28.2°C 80.0°F26.7°C 91% 0.8 mph NE1.3 kmh NE 2.2 mph3.5 kmh 30.01 in1016.3 mb 0.00 in0.0 mm 0.00 in0.0 mm 0.11 in2.8 mm
02:55 PM 82.9°F28.3°C 79.6°F26.4°C 90% 1.1 mph NE1.8 kmh NE 2.7 mph4.3 kmh 30.01 in1016.3 mb 0.00 in0.0 mm 0.00 in0.0 mm 0.11 in2.8 mm
02:50 PM 82.7°F28.2°C 80.4°F26.9°C 93% 0.4 mph NE0.6 kmh NE 2.2 mph3.5 kmh 30.01 in1016.3 mb 0.00 in0.0 mm 0.00 in0.0 mm 0.11 in2.8 mm
02:45 PM 82.4°F28.0°C 79.9°F26.6°C 92% 1.3 mph NE2.1 kmh NE 2.7 mph4.3 kmh 30.01 in1016.3 mb 0.00 in0.0 mm 0.00 in0.0 mm 0.11 in2.8 mm
02:40 PM 82.0°F27.8°C 79.8°F26.6°C 93% 1.8 mph NE2.9 kmh NE 2.7 mph4.3 kmh 30.01 in1016.3 mb 0.00 in0.0 mm 0.00 in0.0 mm 0.11 in2.8 mm
02:35 PM 81.7°F27.6°C 79.9°F26.6°C 94% 1.7 mph NE2.7 kmh NE 2.7 mph4.3 kmh 30.01 in1016.3 mb 0.00 in0.0 mm 0.00 in0.0 mm 0.11 in2.8 mm
02:30 PM 81.2°F27.3°C 79.1°F26.2°C 93% 1.4 mph NE2.3 kmh NE 2.7 mph4.3 kmh 30.02 in1016.6 mb 0.00 in0.0 mm 0.00 in0.0 mm 0.11 in2.8 mm
02:25 PM 80.9°F27.2°C 79.2°F26.2°C 94% 0.6 mph NE1.0 kmh NE 2.2 mph3.5 kmh 30.02 in1016.6 mb 0.00 in0.0 mm 0.00 in0.0 mm 0.11 in2.8 mm
02:20 PM 80.3°F26.8°C 79.0°F26.1°C 96% 1.0 mph NE1.6 kmh NE 3.2 mph5.1 kmh 30.02 in1016.6 mb 0.00 in0.0 mm 0.00 in0.0 mm 0.11 in2.8 mm
02:15 PM 80.1°F26.7°C 78.7°F25.9°C 96% 0.5 mph NE0.8 kmh NE 2.7 mph4.3 kmh 30.02 in1016.6 mb 0.00 in0.0 mm 0.00 in0.0 mm 0.11 in2.8 mm
02:10 PM 80.1°F26.7°C 78.7°F25.9°C 96% 1.2 mph NE1.9 kmh NE 2.2 mph3.5 kmh 30.02 in1016.6 mb 0.00 in0.0 mm 0.00 in0.0 mm 0.11 in2.8 mm
02:05 PM 80.0°F26.7°C 78.3°F25.7°C 95% 1.5 mph NE2.4 kmh NE 3.7 mph6.0 kmh 30.02 in1016.6 mb 0.00 in0.0 mm 0.00 in0.0 mm 0.11 in2.8 mm
02:00 PM 79.8°F26.6°C 78.2°F25.7°C 95% 1.2 mph NE1.9 kmh NE 2.7 mph4.3 kmh 30.02 in1016.6 mb 0.00 in0.0 mm 0.00 in0.0 mm 0.11 in2.8 mm
01:55 PM 79.7°F26.5°C 78.2°F25.7°C 95% 1.3 mph NE2.1 kmh NE 3.2 mph5.1 kmh 30.02 in1016.6 mb 0.09 in2.3 mm 0.00 in0.0 mm 0.11 in2.8 mm
01:50 PM 79.9°F26.6°C 78.2°F25.7°C 95% 0.6 mph NE1.0 kmh NE 1.7 mph2.7 kmh 30.02 in1016.6 mb 0.10 in2.5 mm 0.00 in0.0 mm 0.11 in2.8 mm
01:45 PM 79.9°F26.6°C 77.5°F25.3°C 92% 1.6 mph NE2.6 kmh NE 2.2 mph3.5 kmh 30.03 in1016.9 mb 0.10 in2.5 mm 0.00 in0.0 mm 0.11 in2.8 mm
01:40 PM 80.1°F26.7°C 77.4°F25.2°C 92% 2.6 mph NE4.2 kmh NE 4.2 mph6.8 kmh 30.03 in1016.9 mb 0.10 in2.5 mm 0.00 in0.0 mm 0.11 in2.8 mm
01:35 PM 79.7°F26.5°C 77.6°F25.3°C 93% 0.1 mph NE0.2 kmh NE 2.2 mph3.5 kmh 30.03 in1016.9 mb 0.10 in2.5 mm 0.00 in0.0 mm 0.11 in2.8 mm
01:30 PM 79.4°F26.3°C 78.1°F25.6°C 96% Calm Calm -- 30.03 in1016.9 mb 0.10 in2.5 mm 0.00 in0.0 mm 0.11 in2.8 mm
01:25 PM 79.6°F26.4°C 77.3°F25.2°C 93% 1.2 mph NE1.9 kmh NE 2.2 mph3.5 kmh 30.03 in1016.9 mb 0.10 in2.5 mm 0.00 in0.0 mm 0.11 in2.8 mm
01:20 PM 79.6°F26.4°C 77.2°F25.1°C 93% 2.0 mph NE3.2 kmh NE 2.7 mph4.3 kmh 30.04 in1017.3 mb 0.10 in2.5 mm 0.00 in0.0 mm 0.11 in2.8 mm
01:15 PM 80.6°F27.0°C 78.1°F25.6°C 92% 2.2 mph E3.5 kmh E 6.8 mph10.9 kmh 30.04 in1017.3 mb 0.10 in2.5 mm 0.00 in0.0 mm 0.11 in2.8 mm
01:10 PM 81.0°F27.2°C 78.8°F26.0°C 93% 1.6 mph ENE2.6 kmh ENE 3.7 mph6.0 kmh 30.05 in1017.6 mb 0.10 in2.5 mm 0.00 in0.0 mm 0.11 in2.8 mm
01:05 PM 80.7°F27.1°C 78.1°F25.6°C 92% 2.3 mph E3.7 kmh E 3.2 mph5.1 kmh 30.05 in1017.6 mb 0.10 in2.5 mm 0.00 in0.0 mm 0.11 in2.8 mm
01:00 PM 80.5°F26.9°C 77.7°F25.4°C 91% 7.0 mph SSW11.3 kmh SSW 11.4 mph18.3 kmh 30.05 in1017.6 mb 0.10 in2.5 mm 0.10 in2.5 mm 0.11 in2.8 mm
12:55 PM 84.1°F28.9°C 78.4°F25.8°C 83% 8.4 mph SSW13.5 kmh SSW 12.5 mph20.1 kmh 30.03 in1016.9 mb 0.01 in0.3 mm 0.12 in3.0 mm 0.02 in0.5 mm
12:50 PM 86.7°F30.4°C 78.8°F26.0°C 78% 7.2 mph SSW11.6 kmh SSW 10.9 mph17.5 kmh 30.02 in1016.6 mb 0.00 in0.0 mm 0.00 in0.0 mm 0.01 in0.3 mm
12:45 PM 86.8°F30.4°C 78.1°F25.6°C 76% 4.1 mph S6.6 kmh S 6.8 mph10.9 kmh 30.02 in1016.6 mb 0.00 in0.0 mm 0.00 in0.0 mm 0.01 in0.3 mm
12:40 PM 87.3°F30.7°C 78.0°F25.6°C 74% 5.8 mph SSW9.3 kmh SSW 7.8 mph12.6 kmh 30.02 in1016.6 mb 0.00 in0.0 mm 0.00 in0.0 mm 0.01 in0.3 mm
12:35 PM 88.8°F31.6°C 77.8°F25.4°C 70% 5.6 mph SSW9.0 kmh SSW 7.8 mph12.6 kmh 30.02 in1016.6 mb 0.00 in0.0 mm 0.00 in0.0 mm 0.01 in0.3 mm
12:30 PM 89.2°F31.8°C 77.2°F25.1°C 68% 5.4 mph SSW8.7 kmh SSW 8.3 mph13.4 kmh 30.02 in1016.6 mb 0.00 in0.0 mm 0.00 in0.0 mm 0.01 in0.3 mm
12:25 PM 89.6°F32.0°C 77.7°F25.4°C 68% 6.1 mph SSW9.8 kmh SSW 10.4 mph16.7 kmh 30.02 in1016.6 mb 0.00 in0.0 mm 0.00 in0.0 mm 0.01 in0.3 mm
12:20 PM 89.8°F32.1°C 79.2°F26.2°C 71% 4.9 mph S7.9 kmh S 9.4 mph15.1 kmh 30.02 in1016.6 mb 0.00 in0.0 mm 0.00 in0.0 mm 0.01 in0.3 mm
12:15 PM 89.3°F31.8°C 79.7°F26.5°C 74% 3.4 mph NE5.5 kmh NE 6.8 mph10.9 kmh 30.02 in1016.6 mb 0.00 in0.0 mm 0.00 in0.0 mm 0.01 in0.3 mm
12:10 PM 89.3°F31.8°C 80.0°F26.7°C 74% 3.3 mph NE5.3 kmh NE 6.3 mph10.1 kmh 30.03 in1016.9 mb 0.00 in0.0 mm 0.00 in0.0 mm 0.01 in0.3 mm
12:05 PM 89.4°F31.9°C 79.4°F26.3°C 73% 3.4 mph NE5.5 kmh NE 5.8 mph9.3 kmh 30.03 in1016.9 mb 0.00 in0.0 mm 0.00 in0.0 mm 0.01 in0.3 mm
12:00 PM 89.8°F32.1°C 79.4°F26.3°C 72% 3.7 mph E6.0 kmh E 6.8 mph10.9 kmh 30.03 in1016.9 mb 0.00 in0.0 mm 0.00 in0.0 mm 0.01 in0.3 mm
11:55 AM 89.6°F32.0°C 79.3°F26.3°C 72% 3.0 mph ENE4.8 kmh ENE 4.7 mph7.6 kmh 30.03 in1016.9 mb 0.00 in0.0 mm 0.00 in0.0 mm 0.01 in0.3 mm
11:50 AM 89.1°F31.7°C 79.9°F26.6°C 75% 3.1 mph ENE5.0 kmh ENE 5.3 mph8.5 kmh 30.03 in1016.9 mb 0.00 in0.0 mm 0.00 in0.0 mm 0.01 in0.3 mm
11:45 AM 88.0°F31.1°C 80.6°F27.0°C 79% 2.8 mph NE4.5 kmh NE 5.8 mph9.3 kmh 30.03 in1016.9 mb 0.00 in0.0 mm 0.00 in0.0 mm 0.01 in0.3 mm
11:40 AM 85.8°F29.9°C 80.7°F27.1°C 85% 2.7 mph NE4.3 kmh NE 4.7 mph7.6 kmh 30.03 in1016.9 mb 0.00 in0.0 mm 0.00 in0.0 mm 0.01 in0.3 mm
11:35 AM 84.7°F29.3°C 80.1°F26.7°C 86% 2.6 mph S4.2 kmh S 4.2 mph6.8 kmh 30.03 in1016.9 mb 0.00 in0.0 mm 0.00 in0.0 mm 0.01 in0.3 mm
11:30 AM 84.0°F28.9°C 79.9°F26.6°C 87% 3.1 mph SSW5.0 kmh SSW 4.2 mph6.8 kmh 30.04 in1017.3 mb 0.00 in0.0 mm 0.00 in0.0 mm 0.01 in0.3 mm
11:25 AM 84.4°F29.1°C 80.4°F26.9°C 88% 1.8 mph NE2.9 kmh NE 3.2 mph5.1 kmh 30.04 in1017.3 mb 0.00 in0.0 mm 0.00 in0.0 mm 0.01 in0.3 mm
11:20 AM 84.3°F29.1°C 80.4°F26.9°C 88% 2.0 mph NE3.2 kmh NE 3.7 mph6.0 kmh 30.03 in1016.9 mb 0.00 in0.0 mm 0.00 in0.0 mm 0.01 in0.3 mm
11:15 AM 83.9°F28.8°C 79.9°F26.6°C 88% 1.5 mph NE2.4 kmh NE 2.7 mph4.3 kmh 30.03 in1016.9 mb 0.00 in0.0 mm 0.00 in0.0 mm 0.01 in0.3 mm
11:10 AM 83.7°F28.7°C 79.3°F26.3°C 87% 1.9 mph NE3.1 kmh NE 3.7 mph6.0 kmh 30.03 in1016.9 mb 0.00 in0.0 mm 0.00 in0.0 mm 0.01 in0.3 mm
11:05 AM 83.4°F28.6°C 79.4°F26.3°C 88% 2.5 mph SSW4.0 kmh SSW 4.2 mph6.8 kmh 30.03 in1016.9 mb 0.00 in0.0 mm 0.00 in0.0 mm 0.01 in0.3 mm
11:00 AM 83.0°F28.3°C 78.8°F26.0°C 87% 3.2 mph S5.1 kmh S 4.7 mph7.6 kmh 30.03 in1016.9 mb 0.00 in0.0 mm 0.00 in0.0 mm 0.01 in0.3 mm
10:55 AM 83.0°F28.3°C 79.0°F26.1°C 88% 4.4 mph SSW7.1 kmh SSW 7.3 mph11.7 kmh 30.03 in1016.9 mb 0.00 in0.0 mm 0.00 in0.0 mm 0.01 in0.3 mm
10:50 AM 83.3°F28.5°C 79.6°F26.4°C 89% 2.8 mph S4.5 kmh S 5.8 mph9.3 kmh 30.03 in1016.9 mb 0.00 in0.0 mm 0.00 in0.0 mm 0.01 in0.3 mm
10:45 AM 83.1°F28.4°C 79.4°F26.3°C 89% 1.5 mph NE2.4 kmh NE 2.7 mph4.3 kmh 30.03 in1016.9 mb 0.00 in0.0 mm 0.00 in0.0 mm 0.01 in0.3 mm
10:40 AM 82.9°F28.3°C 79.7°F26.5°C 90% 1.7 mph S2.7 kmh S 2.2 mph3.5 kmh 30.03 in1016.9 mb 0.00 in0.0 mm 0.00 in0.0 mm 0.01 in0.3 mm
10:35 AM 82.2°F27.9°C 79.2°F26.2°C 91% 1.7 mph SW2.7 kmh SW 2.7 mph4.3 kmh 30.03 in1016.9 mb 0.00 in0.0 mm 0.00 in0.0 mm 0.01 in0.3 mm
10:30 AM 82.6°F28.1°C 79.4°F26.3°C 90% 1.8 mph SE2.9 kmh SE 3.2 mph5.1 kmh 30.02 in1016.6 mb 0.00 in0.0 mm 0.00 in0.0 mm 0.01 in0.3 mm
10:25 AM 82.7°F28.2°C 79.6°F26.4°C 90% 2.4 mph E3.9 kmh E 4.2 mph6.8 kmh 30.02 in1016.6 mb 0.00 in0.0 mm 0.00 in0.0 mm 0.01 in0.3 mm
10:20 AM 81.9°F27.7°C 79.8°F26.6°C 93% 2.2 mph WSW3.5 kmh WSW 3.7 mph6.0 kmh 30.02 in1016.6 mb 0.00 in0.0 mm 0.00 in0.0 mm 0.01 in0.3 mm
10:15 AM 81.2°F27.3°C 79.2°F26.2°C 94% 1.9 mph NE3.1 kmh NE 4.2 mph6.8 kmh 30.02 in1016.6 mb 0.00 in0.0 mm 0.00 in0.0 mm 0.01 in0.3 mm
10:10 AM 80.9°F27.2°C 79.0°F26.1°C 94% 2.2 mph NE3.5 kmh NE 4.7 mph7.6 kmh 30.02 in1016.6 mb 0.00 in0.0 mm 0.00 in0.0 mm 0.01 in0.3 mm
10:05 AM 81.1°F27.3°C 79.1°F26.2°C 94% 3.1 mph S5.0 kmh S 5.3 mph8.5 kmh 30.02 in1016.6 mb 0.00 in0.0 mm 0.00 in0.0 mm 0.01 in0.3 mm
10:00 AM 81.0°F27.2°C 79.0°F26.1°C 94% 3.1 mph SSW5.0 kmh SSW 4.7 mph7.6 kmh 30.02 in1016.6 mb 0.00 in0.0 mm 0.00 in0.0 mm 0.01 in0.3 mm
09:55 AM 80.6°F27.0°C 79.2°F26.2°C 96% 2.3 mph SSW3.7 kmh SSW 4.7 mph7.6 kmh 30.03 in1016.9 mb 0.00 in0.0 mm 0.00 in0.0 mm 0.01 in0.3 mm
09:50 AM 80.4°F26.9°C 78.7°F25.9°C 94% 2.4 mph SW3.9 kmh SW 3.7 mph6.0 kmh 30.03 in1016.9 mb 0.00 in0.0 mm 0.00 in0.0 mm 0.01 in0.3 mm
09:45 AM 80.7°F27.1°C 78.9°F26.1°C 94% 1.5 mph SSW2.4 kmh SSW 4.2 mph6.8 kmh 30.03 in1016.9 mb 0.00 in0.0 mm 0.00 in0.0 mm 0.01 in0.3 mm
09:40 AM 80.1°F26.7°C 78.6°F25.9°C 95% 1.3 mph S2.1 kmh S 2.7 mph4.3 kmh 30.02 in1016.6 mb 0.00 in0.0 mm 0.00 in0.0 mm 0.01 in0.3 mm
09:35 AM 79.8°F26.6°C 78.3°F25.7°C 95% 1.9 mph SSW3.1 kmh SSW 3.7 mph6.0 kmh 30.02 in1016.6 mb 0.00 in0.0 mm 0.00 in0.0 mm 0.01 in0.3 mm
09:30 AM 79.1°F26.2°C 78.2°F25.7°C 97% 2.5 mph SSW4.0 kmh SSW 4.2 mph6.8 kmh 30.03 in1016.9 mb 0.00 in0.0 mm 0.00 in0.0 mm 0.01 in0.3 mm
09:25 AM 79.0°F26.1°C 78.3°F25.7°C 98% 2.7 mph SE4.3 kmh SE 4.2 mph6.8 kmh 30.02 in1016.6 mb 0.00 in0.0 mm 0.00 in0.0 mm 0.01 in0.3 mm
09:20 AM 79.0°F26.1°C 78.6°F25.9°C 99% 0.9 mph WSW1.4 kmh WSW 2.2 mph3.5 kmh 30.03 in1016.9 mb 0.00 in0.0 mm 0.00 in0.0 mm 0.01 in0.3 mm
09:15 AM 79.4°F26.3°C 78.9°F26.1°C 98% 0.8 mph S1.3 kmh S 1.7 mph2.7 kmh 30.03 in1016.9 mb 0.00 in0.0 mm 0.00 in0.0 mm 0.01 in0.3 mm
09:10 AM 79.1°F26.2°C 78.8°F26.0°C 99% 1.2 mph S1.9 kmh S 2.7 mph4.3 kmh 30.03 in1016.9 mb 0.00 in0.0 mm 0.00 in0.0 mm 0.01 in0.3 mm
09:05 AM 78.7°F25.9°C 78.4°F25.8°C 99% 0.3 mph NW0.5 kmh NW 1.1 mph1.8 kmh 30.03 in1016.9 mb 0.01 in0.3 mm 0.00 in0.0 mm 0.01 in0.3 mm
09:00 AM 78.2°F25.7°C 77.9°F25.5°C 99% 0.8 mph NNE1.3 kmh NNE 2.2 mph3.5 kmh 30.03 in1016.9 mb 0.01 in0.3 mm 0.00 in0.0 mm 0.01 in0.3 mm
08:55 AM 77.8°F25.4°C 77.5°F25.3°C 99% 1.5 mph NE2.4 kmh NE 2.7 mph4.3 kmh 30.03 in1016.9 mb 0.01 in0.3 mm 0.00 in0.0 mm 0.01 in0.3 mm
08:50 AM 77.5°F25.3°C 77.2°F25.1°C 99% 1.4 mph S2.3 kmh S 3.2 mph5.1 kmh 30.03 in1016.9 mb 0.01 in0.3 mm 0.00 in0.0 mm 0.01 in0.3 mm
08:45 AM 77.5°F25.3°C 77.2°F25.1°C 99% 1.9 mph SSE3.1 kmh SSE 3.7 mph6.0 kmh 30.03 in1016.9 mb 0.01 in0.3 mm 0.00 in0.0 mm 0.01 in0.3 mm
08:40 AM 77.2°F25.1°C 76.9°F24.9°C 99% 2.1 mph SSW3.4 kmh SSW 4.2 mph6.8 kmh 30.03 in1016.9 mb 0.01 in0.3 mm 0.00 in0.0 mm 0.01 in0.3 mm
08:35 AM 77.2°F25.1°C 76.9°F24.9°C 99% 1.0 mph SW1.6 kmh SW 2.2 mph3.5 kmh 30.03 in1016.9 mb 0.01 in0.3 mm 0.00 in0.0 mm 0.01 in0.3 mm
08:30 AM 77.1°F25.1°C 76.8°F24.9°C 99% 0.1 mph N0.2 kmh N 1.7 mph2.7 kmh 30.04 in1017.3 mb 0.01 in0.3 mm 0.00 in0.0 mm 0.01 in0.3 mm
08:25 AM 76.7°F24.8°C 76.4°F24.7°C 99% 0.3 mph NW0.5 kmh NW 1.7 mph2.7 kmh 30.04 in1017.3 mb 0.01 in0.3 mm 0.00 in0.0 mm 0.01 in0.3 mm
08:20 AM 76.6°F24.8°C 76.3°F24.6°C 99% 0.1 mph NNE0.2 kmh NNE 1.1 mph1.8 kmh 30.04 in1017.3 mb 0.01 in0.3 mm 0.00 in0.0 mm 0.01 in0.3 mm
08:15 AM 76.3°F24.6°C 76.0°F24.4°C 99% Calm Calm -- 30.04 in1017.3 mb 0.01 in0.3 mm 0.00 in0.0 mm 0.01 in0.3 mm
08:10 AM 76.1°F24.5°C 75.8°F24.3°C 99% 0.1 mph N0.2 kmh N 1.1 mph1.8 kmh 30.04 in1017.3 mb 0.01 in0.3 mm 0.12 in3.0 mm 0.01 in0.3 mm
08:05 AM 75.8°F24.3°C 75.5°F24.2°C 99% 0.4 mph NNE0.6 kmh NNE 1.7 mph2.7 kmh 30.03 in1016.9 mb 0.00 in0.0 mm 0.00 in0.0 mm 0.00 in0.0 mm
08:00 AM 75.9°F24.4°C 75.6°F24.2°C 99% 0.5 mph NNE0.8 kmh NNE 1.7 mph2.7 kmh 30.03 in1016.9 mb 0.00 in0.0 mm 0.00 in0.0 mm 0.00 in0.0 mm
07:55 AM 76.0°F24.4°C 75.7°F24.3°C 99% 0.3 mph NNE0.5 kmh NNE 1.7 mph2.7 kmh 30.03 in1016.9 mb 0.00 in0.0 mm 0.00 in0.0 mm 0.00 in0.0 mm
07:50 AM 76.1°F24.5°C 75.8°F24.3°C 99% Calm Calm -- 30.03 in1016.9 mb 0.00 in0.0 mm 0.00 in0.0 mm 0.00 in0.0 mm
07:45 AM 75.8°F24.3°C 75.5°F24.2°C 99% Calm Calm -- 30.03 in1016.9 mb 0.00 in0.0 mm 0.00 in0.0 mm 0.00 in0.0 mm
07:40 AM 75.7°F24.3°C 75.4°F24.1°C 99% Calm Calm -- 30.03 in1016.9 mb 0.00 in0.0 mm 0.00 in0.0 mm 0.00 in0.0 mm
07:35 AM 75.6°F24.2°C 75.3°F24.1°C 99% Calm Calm -- 30.03 in1016.9 mb 0.00 in0.0 mm 0.00 in0.0 mm 0.00 in0.0 mm
07:30 AM 75.6°F24.2°C 75.3°F24.1°C 99% Calm Calm -- 30.02 in1016.6 mb 0.00 in0.0 mm 0.00 in0.0 mm 0.00 in0.0 mm
07:25 AM 75.7°F24.3°C 75.4°F24.1°C 99% Calm Calm -- 30.02 in1016.6 mb 0.00 in0.0 mm 0.00 in0.0 mm 0.00 in0.0 mm
07:20 AM 75.6°F24.2°C 75.3°F24.1°C 99% Calm Calm -- 30.02 in1016.6 mb 0.00 in0.0 mm 0.00 in0.0 mm 0.00 in0.0 mm
07:15 AM 75.5°F24.2°C 75.2°F24.0°C 99% Calm Calm -- 30.02 in1016.6 mb 0.00 in0.0 mm 0.00 in0.0 mm 0.00 in0.0 mm
07:10 AM 75.3°F24.1°C 75.0°F23.9°C 99% Calm Calm -- 30.02 in1016.6 mb 0.00 in0.0 mm 0.00 in0.0 mm 0.00 in0.0 mm
07:05 AM 75.2°F24.0°C 74.9°F23.8°C 99% Calm Calm -- 30.02 in1016.6 mb 0.00 in0.0 mm 0.00 in0.0 mm 0.00 in0.0 mm
07:00 AM 75.3°F24.1°C 75.0°F23.9°C 99% Calm Calm -- 30.02 in1016.6 mb 0.00 in0.0 mm 0.00 in0.0 mm 0.00 in0.0 mm
06:55 AM 75.3°F24.1°C 75.0°F23.9°C 99% Calm Calm -- 30.02 in1016.6 mb 0.00 in0.0 mm 0.00 in0.0 mm 0.00 in0.0 mm
06:50 AM 75.0°F23.9°C 74.7°F23.7°C 99% Calm Calm -- 30.02 in1016.6 mb 0.00 in0.0 mm 0.00 in0.0 mm 0.00 in0.0 mm
06:45 AM 75.0°F23.9°C 74.7°F23.7°C 99% Calm Calm -- 30.01 in1016.3 mb 0.00 in0.0 mm 0.00 in0.0 mm 0.00 in0.0 mm
06:40 AM 75.0°F23.9°C 74.7°F23.7°C 99% 0.3 mph NNE0.5 kmh NNE 1.7 mph2.7 kmh 30.01 in1016.3 mb 0.00 in0.0 mm 0.00 in0.0 mm 0.00 in0.0 mm
06:35 AM 75.0°F23.9°C 74.7°F23.7°C 99% Calm Calm -- 30.01 in1016.3 mb 0.00 in0.0 mm 0.00 in0.0 mm 0.00 in0.0 mm
06:30 AM 75.0°F23.9°C 74.7°F23.7°C 99% Calm Calm -- 30.01 in1016.3 mb 0.00 in0.0 mm 0.00 in0.0 mm 0.00 in0.0 mm
06:25 AM 75.0°F23.9°C 74.7°F23.7°C 99% Calm Calm -- 30.01 in1016.3 mb 0.00 in0.0 mm 0.00 in0.0 mm 0.00 in0.0 mm
06:20 AM 75.0°F23.9°C 74.7°F23.7°C 99% Calm Calm -- 30.01 in1016.3 mb 0.00 in0.0 mm 0.00 in0.0 mm 0.00 in0.0 mm
06:15 AM 75.0°F23.9°C 74.7°F23.7°C 99% Calm Calm -- 30.01 in1016.3 mb 0.00 in0.0 mm 0.00 in0.0 mm 0.00 in0.0 mm
06:10 AM 75.0°F23.9°C 74.7°F23.7°C 99% 0.1 mph N0.2 kmh N 1.1 mph1.8 kmh 30.00 in1015.9 mb 0.00 in0.0 mm 0.00 in0.0 mm 0.00 in0.0 mm
06:05 AM 75.0°F23.9°C 74.7°F23.7°C 99% 0.1 mph NNE0.2 kmh NNE 1.1 mph1.8 kmh 30.00 in1015.9 mb 0.00 in0.0 mm 0.00 in0.0 mm 0.00 in0.0 mm
06:00 AM 75.0°F23.9°C 74.7°F23.7°C 99% 0.5 mph N0.8 kmh N 1.7 mph2.7 kmh 30.00 in1015.9 mb 0.00 in0.0 mm 0.00 in0.0 mm 0.00 in0.0 mm
05:55 AM 75.2°F24.0°C 74.9°F23.8°C 99% 0.6 mph WSW1.0 kmh WSW 1.7 mph2.7 kmh 30.00 in1015.9 mb 0.00 in0.0 mm 0.00 in0.0 mm 0.00 in0.0 mm
05:50 AM 75.2°F24.0°C 74.9°F23.8°C 99% 1.7 mph SSW2.7 kmh SSW 2.2 mph3.5 kmh 30.00 in1015.9 mb 0.00 in0.0 mm 0.00 in0.0 mm 0.00 in0.0 mm
05:45 AM 75.0°F23.9°C 74.7°F23.7°C 99% 2.0 mph S3.2 kmh S 2.7 mph4.3 kmh 30.00 in1015.9 mb 0.00 in0.0 mm 0.00 in0.0 mm 0.00 in0.0 mm
05:40 AM 75.2°F24.0°C 74.9°F23.8°C 99% Calm Calm -- 29.99 in1015.6 mb 0.00 in0.0 mm 0.00 in0.0 mm 0.00 in0.0 mm
05:35 AM 75.1°F23.9°C 74.8°F23.8°C 99% Calm Calm -- 29.99 in1015.6 mb 0.00 in0.0 mm 0.00 in0.0 mm 0.00 in0.0 mm
05:30 AM 75.0°F23.9°C 74.7°F23.7°C 99% Calm Calm -- 29.99 in1015.6 mb 0.00 in0.0 mm 0.00 in0.0 mm 0.00 in0.0 mm
05:25 AM 75.0°F23.9°C 74.7°F23.7°C 99% Calm Calm -- 29.99 in1015.6 mb 0.00 in0.0 mm 0.00 in0.0 mm 0.00 in0.0 mm
05:20 AM 74.7°F23.7°C 74.4°F23.6°C 99% Calm Calm -- 29.98 in1015.2 mb 0.00 in0.0 mm 0.00 in0.0 mm 0.00 in0.0 mm
05:15 AM 74.7°F23.7°C 74.4°F23.6°C 99% Calm Calm -- 29.98 in1015.2 mb 0.00 in0.0 mm 0.00 in0.0 mm 0.00 in0.0 mm
05:10 AM 74.8°F23.8°C 74.5°F23.6°C 99% Calm Calm -- 29.98 in1015.2 mb 0.00 in0.0 mm 0.00 in0.0 mm 0.00 in0.0 mm
05:05 AM 74.9°F23.8°C 74.6°F23.7°C 99% Calm Calm -- 29.98 in1015.2 mb 0.00 in0.0 mm 0.00 in0.0 mm 0.00 in0.0 mm
05:00 AM 74.8°F23.8°C 74.5°F23.6°C 99% 0.5 mph S0.8 kmh S 3.2 mph5.1 kmh 29.98 in1015.2 mb 0.00 in0.0 mm 0.00 in0.0 mm 0.00 in0.0 mm
04:55 AM 74.8°F23.8°C 74.5°F23.6°C 99% Calm Calm -- 29.97 in1014.9 mb 0.00 in0.0 mm 0.00 in0.0 mm 0.00 in0.0 mm
04:50 AM 74.9°F23.8°C 74.6°F23.7°C 99% Calm Calm -- 29.97 in1014.9 mb 0.00 in0.0 mm 0.00 in0.0 mm 0.00 in0.0 mm
04:45 AM 74.8°F23.8°C 74.5°F23.6°C 99% Calm Calm -- 29.97 in1014.9 mb 0.00 in0.0 mm 0.00 in0.0 mm 0.00 in0.0 mm
04:40 AM 74.5°F23.6°C 74.2°F23.4°C 99% Calm Calm -- 29.97 in1014.9 mb 0.00 in0.0 mm 0.00 in0.0 mm 0.00 in0.0 mm
04:35 AM 74.4°F23.6°C 74.1°F23.4°C 99% 0.5 mph ENE0.8 kmh ENE 1.7 mph2.7 kmh 29.97 in1014.9 mb 0.00 in0.0 mm 0.00 in0.0 mm 0.00 in0.0 mm
04:30 AM 74.5°F23.6°C 74.2°F23.4°C 99% 0.9 mph ENE1.4 kmh ENE 2.2 mph3.5 kmh 29.97 in1014.9 mb 0.00 in0.0 mm 0.00 in0.0 mm 0.00 in0.0 mm
04:25 AM 74.5°F23.6°C 74.2°F23.4°C 99% 0.3 mph ENE0.5 kmh ENE 2.7 mph4.3 kmh 29.97 in1014.9 mb 0.00 in0.0 mm 0.00 in0.0 mm 0.00 in0.0 mm
04:20 AM 74.5°F23.6°C 74.2°F23.4°C 99% Calm Calm -- 29.97 in1014.9 mb 0.00 in0.0 mm 0.00 in0.0 mm 0.00 in0.0 mm
04:15 AM 74.5°F23.6°C 74.2°F23.4°C 99% 0.6 mph ENE1.0 kmh ENE 1.7 mph2.7 kmh 29.97 in1014.9 mb 0.00 in0.0 mm 0.00 in0.0 mm 0.00 in0.0 mm
04:10 AM 74.6°F23.7°C 74.3°F23.5°C 99% 0.4 mph ENE0.6 kmh ENE 1.7 mph2.7 kmh 29.97 in1014.9 mb 0.00 in0.0 mm 0.00 in0.0 mm 0.00 in0.0 mm
04:05 AM 74.7°F23.7°C 74.4°F23.6°C 99% Calm Calm -- 29.97 in1014.9 mb 0.00 in0.0 mm 0.00 in0.0 mm 0.00 in0.0 mm
04:00 AM 74.7°F23.7°C 74.4°F23.6°C 99% Calm Calm -- 29.97 in1014.9 mb 0.00 in0.0 mm 0.00 in0.0 mm 0.00 in0.0 mm
03:55 AM 74.8°F23.8°C 74.5°F23.6°C 99% Calm Calm -- 29.97 in1014.9 mb 0.00 in0.0 mm 0.00 in0.0 mm 0.00 in0.0 mm
03:50 AM 75.0°F23.9°C 74.7°F23.7°C 99% Calm Calm -- 29.97 in1014.9 mb 0.00 in0.0 mm 0.00 in0.0 mm 0.00 in0.0 mm
03:45 AM 75.2°F24.0°C 74.9°F23.8°C 99% Calm Calm -- 29.97 in1014.9 mb 0.00 in0.0 mm 0.00 in0.0 mm 0.00 in0.0 mm
03:40 AM 75.1°F23.9°C 74.8°F23.8°C 99% Calm Calm -- 29.98 in1015.2 mb 0.00 in0.0 mm 0.00 in0.0 mm 0.00 in0.0 mm
03:35 AM 75.1°F23.9°C 74.8°F23.8°C 99% Calm Calm -- 29.98 in1015.2 mb 0.00 in0.0 mm 0.00 in0.0 mm 0.00 in0.0 mm
03:30 AM 75.2°F24.0°C 74.9°F23.8°C 99% Calm Calm -- 29.98 in1015.2 mb 0.00 in0.0 mm 0.00 in0.0 mm 0.00 in0.0 mm
03:25 AM 75.1°F23.9°C 74.8°F23.8°C 99% Calm Calm -- 29.98 in1015.2 mb 0.00 in0.0 mm 0.00 in0.0 mm 0.00 in0.0 mm
03:20 AM 75.0°F23.9°C 74.6°F23.7°C 99% Calm Calm -- 29.98 in1015.2 mb 0.00 in0.0 mm 0.00 in0.0 mm 0.00 in0.0 mm
03:15 AM 75.1°F23.9°C 74.8°F23.8°C 99% Calm Calm -- 29.98 in1015.2 mb 0.00 in0.0 mm 0.00 in0.0 mm 0.00 in0.0 mm
03:10 AM 75.0°F23.9°C 74.7°F23.7°C 99% Calm Calm -- 29.98 in1015.2 mb 0.00 in0.0 mm 0.00 in0.0 mm 0.00 in0.0 mm
03:05 AM 75.1°F23.9°C 74.8°F23.8°C 99% Calm Calm -- 29.98 in1015.2 mb 0.00 in0.0 mm 0.00 in0.0 mm 0.00 in0.0 mm
03:00 AM 75.2°F24.0°C 74.9°F23.8°C 99% Calm Calm -- 29.98 in1015.2 mb 0.00 in0.0 mm 0.00 in0.0 mm 0.00 in0.0 mm
02:55 AM 75.2°F24.0°C 74.9°F23.8°C 99% Calm Calm -- 29.98 in1015.2 mb 0.00 in0.0 mm 0.00 in0.0 mm 0.00 in0.0 mm
02:50 AM 75.0°F23.9°C 74.7°F23.7°C 99% Calm Calm -- 29.98 in1015.2 mb 0.00 in0.0 mm 0.00 in0.0 mm 0.00 in0.0 mm
02:45 AM 75.3°F24.1°C 75.0°F23.9°C 99% Calm Calm -- 29.98 in1015.2 mb 0.00 in0.0 mm 0.00 in0.0 mm 0.00 in0.0 mm
02:40 AM 75.4°F24.1°C 75.1°F23.9°C 99% Calm Calm -- 29.97 in1014.9 mb 0.00 in0.0 mm 0.00 in0.0 mm 0.00 in0.0 mm
02:35 AM 75.2°F24.0°C 74.9°F23.8°C 99% Calm Calm -- 29.97 in1014.9 mb 0.00 in0.0 mm 0.00 in0.0 mm 0.00 in0.0 mm
02:30 AM 75.2°F24.0°C 74.9°F23.8°C 99% Calm Calm -- 29.97 in1014.9 mb 0.00 in0.0 mm 0.00 in0.0 mm 0.00 in0.0 mm
02:25 AM 75.2°F24.0°C 74.9°F23.8°C 99% Calm Calm -- 29.97 in1014.9 mb 0.00 in0.0 mm 0.00 in0.0 mm 0.00 in0.0 mm
02:20 AM 75.4°F24.1°C 75.1°F23.9°C 99% Calm Calm -- 29.98 in1015.2 mb 0.00 in0.0 mm 0.00 in0.0 mm 0.00 in0.0 mm
02:15 AM 75.5°F24.2°C 75.2°F24.0°C 99% Calm Calm -- 29.98 in1015.2 mb 0.00 in0.0 mm 0.00 in0.0 mm 0.00 in0.0 mm
02:10 AM 75.6°F24.2°C 75.3°F24.1°C 99% Calm Calm -- 29.98 in1015.2 mb 0.00 in0.0 mm 0.00 in0.0 mm 0.00 in0.0 mm
02:05 AM 75.6°F24.2°C 75.3°F24.1°C 99% Calm Calm -- 29.98 in1015.2 mb 0.00 in0.0 mm 0.00 in0.0 mm 0.00 in0.0 mm
02:00 AM 75.5°F24.2°C 75.2°F24.0°C 99% Calm Calm -- 29.98 in1015.2 mb 0.00 in0.0 mm 0.00 in0.0 mm 0.00 in0.0 mm
01:55 AM 75.4°F24.1°C 75.1°F23.9°C 99% 0.2 mph ENE0.3 kmh ENE 1.1 mph1.8 kmh 29.99 in1015.6 mb 0.00 in0.0 mm 0.00 in0.0 mm 0.00 in0.0 mm
01:50 AM 75.4°F24.1°C 75.1°F23.9°C 99% 0.1 mph N0.2 kmh N 1.1 mph1.8 kmh 29.99 in1015.6 mb 0.00 in0.0 mm 0.00 in0.0 mm 0.00 in0.0 mm
01:45 AM 75.4°F24.1°C 75.1°F23.9°C 99% 0.2 mph ENE0.3 kmh ENE 1.1 mph1.8 kmh 29.99 in1015.6 mb 0.00 in0.0 mm 0.00 in0.0 mm 0.00 in0.0 mm
01:40 AM 75.4°F24.1°C 75.1°F23.9°C 99% 0.7 mph ENE1.1 kmh ENE 2.2 mph3.5 kmh 29.99 in1015.6 mb 0.00 in0.0 mm 0.00 in0.0 mm 0.00 in0.0 mm
01:35 AM 75.4°F24.1°C 75.1°F23.9°C 99% 0.9 mph ENE1.4 kmh ENE 1.7 mph2.7 kmh 29.99 in1015.6 mb 0.00 in0.0 mm 0.00 in0.0 mm 0.00 in0.0 mm
01:30 AM 75.4°F24.1°C 75.1°F23.9°C 99% Calm Calm -- 29.99 in1015.6 mb 0.00 in0.0 mm 0.00 in0.0 mm 0.00 in0.0 mm
01:25 AM 75.4°F24.1°C 75.1°F23.9°C 99% 0.1 mph ENE0.2 kmh ENE 1.1 mph1.8 kmh 29.99 in1015.6 mb 0.00 in0.0 mm 0.00 in0.0 mm 0.00 in0.0 mm
01:20 AM 75.4°F24.1°C 75.1°F23.9°C 99% Calm Calm -- 29.99 in1015.6 mb 0.00 in0.0 mm 0.00 in0.0 mm 0.00 in0.0 mm
01:15 AM 75.4°F24.1°C 75.1°F23.9°C 99% 0.3 mph ENE0.5 kmh ENE 1.7 mph2.7 kmh 29.99 in1015.6 mb 0.00 in0.0 mm 0.00 in0.0 mm 0.00 in0.0 mm
01:10 AM 75.6°F24.2°C 75.2°F24.0°C 99% Calm Calm -- 29.99 in1015.6 mb 0.00 in0.0 mm 0.00 in0.0 mm 0.00 in0.0 mm
01:05 AM 75.6°F24.2°C 75.3°F24.1°C 99% 0.2 mph ENE0.3 kmh ENE 1.7 mph2.7 kmh 29.99 in1015.6 mb 0.00 in0.0 mm 0.00 in0.0 mm 0.00 in0.0 mm
01:00 AM 75.6°F24.2°C 75.3°F24.1°C 99% 1.0 mph ENE1.6 kmh ENE 3.7 mph6.0 kmh 29.99 in1015.6 mb 0.00 in0.0 mm 0.00 in0.0 mm 0.00 in0.0 mm
12:55 AM 75.6°F24.2°C 75.3°F24.1°C 99% 2.4 mph ENE3.9 kmh ENE 3.7 mph6.0 kmh 29.99 in1015.6 mb 0.00 in0.0 mm 0.00 in0.0 mm 0.00 in0.0 mm
12:50 AM 75.6°F24.2°C 75.3°F24.1°C 99% 1.4 mph ENE2.3 kmh ENE 3.2 mph5.1 kmh 29.99 in1015.6 mb 0.00 in0.0 mm 0.00 in0.0 mm 0.00 in0.0 mm
12:45 AM 75.6°F24.2°C 75.3°F24.1°C 99% Calm Calm -- 29.99 in1015.6 mb 0.00 in0.0 mm 0.00 in0.0 mm 0.00 in0.0 mm
12:40 AM 75.7°F24.3°C 75.4°F24.1°C 99% Calm Calm -- 29.99 in1015.6 mb 0.00 in0.0 mm 0.00 in0.0 mm 0.00 in0.0 mm
12:35 AM 75.6°F24.2°C 75.3°F24.1°C 99% Calm Calm -- 29.99 in1015.6 mb 0.00 in0.0 mm 0.00 in0.0 mm 0.00 in0.0 mm
12:30 AM 75.6°F24.2°C 75.3°F24.1°C 99% Calm Calm -- 29.99 in1015.6 mb 0.00 in0.0 mm 0.00 in0.0 mm 0.00 in0.0 mm
12:25 AM 75.7°F24.3°C 75.4°F24.1°C 99% Calm Calm -- 29.99 in1015.6 mb 0.00 in0.0 mm 0.00 in0.0 mm 0.00 in0.0 mm
12:20 AM 75.7°F24.3°C 75.4°F24.1°C 99% Calm Calm -- 29.99 in1015.6 mb 0.00 in0.0 mm 0.00 in0.0 mm 0.00 in0.0 mm
12:15 AM 75.7°F24.3°C 75.4°F24.1°C 99% Calm Calm -- 29.98 in1015.2 mb 0.00 in0.0 mm 0.00 in0.0 mm 0.00 in0.0 mm
12:10 AM 75.8°F24.3°C 75.5°F24.2°C 99% Calm Calm -- 29.98 in1015.2 mb 0.00 in0.0 mm 0.00 in0.0 mm 0.00 in0.0 mm
12:05 AM 76.0°F24.4°C 75.7°F24.3°C 99% Calm Calm -- 29.98 in1015.2 mb 0.00 in0.0 mm 0.00 in0.0 mm 0.00 in0.0 mm
12:00 AM 76.1°F24.5°C 75.8°F24.3°C 99% Calm Calm -- 29.98 in1015.2 mb 0.00 in0.0 mm 0.00 in0.0 mm 0.00 in0.0 mm